Time;durP1;ratioP1;P1;durP2;ratioP2;P2;SDS_P1;SDS_P2;PMS_P1;PMS_P2;Temp;Humidity;BMP_temperature;BMP_pressure;BME280_temperature;BME280_humidity;BME280_pressure;Samples;Min_cycle;Max_cycle;Signal;HPM_P1;HPM_P2
2022/11/05 00:11:09;;;;;;;;;;;6.40;99.90;;;;;;4990693;28;20044;-77
2022/11/05 00:19:05;;;;;;;14.02;4.05;;;6.30;99.90;;;;;;4993487;28;20526;-77
2022/11/05 00:27:00;;;;;;;7.85;3.53;;;6.20;99.90;;;;;;4992966;28;20042;-77
2022/11/05 00:29:25;;;;;;;9.77;3.83;;;6.20;99.90;;;;;;4993213;28;20046;-77
2022/11/05 00:31:51;;;;;;;5.75;3.15;;;6.20;99.90;;;;;;4993754;28;20148;-79
2022/11/05 00:34:16;;;;;;;8.90;4.07;;;6.20;99.90;;;;;;4994002;28;20548;-78
2022/11/05 00:36:42;;;;;;;10.82;3.30;;;6.20;99.90;;;;;;4993804;28;20045;-77
2022/11/05 00:39:07;;;;;;;7.25;3.40;;;6.20;99.90;;;;;;4995207;28;20057;-78
2022/11/05 00:41:33;;;;;;;7.50;3.03;;;6.20;99.90;;;;;;4997614;28;20065;-77
2022/11/05 00:46:42;;;;;;;10.30;3.17;;;6.20;99.90;;;;;;4996706;28;20108;-77
2022/11/05 00:52:54;;;;;;;7.68;2.97;;;6.20;99.90;;;;;;4996781;28;20078;-78
2022/11/05 00:54:37;;;;;;;9.57;3.10;;;6.20;99.90;;;;;;4991933;28;20045;-77
2022/11/05 00:57:02;;;;;;;6.93;2.58;;;6.20;99.90;;;;;;4996258;28;20545;-77
2022/11/05 00:59:28;;;;;;;9.00;2.70;;;6.20;99.90;;;;;;4995936;28;20046;-78
2022/11/05 01:01:53;;;;;;;8.18;3.00;;;6.20;99.90;;;;;;4996591;28;20046;-77
2022/11/05 01:04:19;;;;;;;5.47;2.47;;;6.20;99.90;;;;;;4997284;28;20034;-77
2022/11/05 01:06:44;;;;;;;7.28;2.60;;;6.20;99.90;;;;;;4995919;28;20384;-77
2022/11/05 01:09:10;;;;;;;6.28;2.75;;;6.20;99.90;;;;;;4996387;28;20042;-78
2022/11/05 01:11:36;;;;;;;6.45;2.50;;;6.20;99.90;;;;;;4997130;28;20045;-78
2022/11/05 01:14:04;;;;;;;8.93;2.60;;;6.20;99.90;;;;;;4980232;28;20034;-78
2022/11/05 01:16:30;;;;;;;8.57;2.47;;;6.20;99.90;;;;;;4989988;28;20052;-77
2022/11/05 01:18:56;;;;;;;6.47;2.30;;;6.20;99.90;;;;;;4995961;28;20127;-77
2022/11/05 01:21:22;;;;;;;7.53;2.47;;;6.10;99.90;;;;;;4996964;28;20077;-77
2022/11/05 01:23:47;;;;;;;6.13;2.50;;;6.10;99.90;;;;;;4996262;28;20030;-77
2022/11/05 01:26:13;;;;;;;6.05;2.72;;;6.20;99.90;;;;;;4996905;28;20044;-77
2022/11/05 01:28:38;;;;;;;6.40;2.40;;;6.10;99.90;;;;;;4996938;28;20052;-77
2022/11/05 01:31:04;;;;;;;8.25;2.53;;;6.10;99.90;;;;;;4995836;28;20044;-77
2022/11/05 01:33:29;;;;;;;9.88;2.13;;;6.10;99.90;;;;;;4995053;28;20422;-77
2022/11/05 01:35:55;;;;;;;5.30;2.08;;;6.10;99.90;;;;;;4994899;28;20048;-78
2022/11/05 01:38:21;;;;;;;6.55;2.40;;;6.10;99.90;;;;;;4996675;28;20040;-77
2022/11/05 01:40:46;;;;;;;9.23;2.53;;;6.00;99.90;;;;;;4997084;28;20038;-77
2022/11/05 01:43:17;;;;;;;8.18;2.20;;;6.00;99.90;;;;;;4995575;28;20038;-78
2022/11/05 01:45:44;;;;;;;6.47;2.58;;;6.10;99.90;;;;;;4997942;28;20051;-77
2022/11/05 01:48:15;;;;;;;4.72;2.40;;;6.00;99.90;;;;;;4996036;28;20085;-77
2022/11/05 01:50:58;;;;;;;6.57;2.30;;;6.00;99.90;;;;;;4980627;28;20046;-77
2022/11/05 01:53:33;;;;;;;6.32;2.00;;;5.90;99.90;;;;;;4996430;28;20120;-79
2022/11/05 01:56:07;;;;;;;6.63;2.50;;;5.90;99.90;;;;;;4980617;28;20092;-77
2022/11/05 01:58:47;;;;;;;6.70;2.50;;;5.90;99.90;;;;;;4994885;28;20042;-77
2022/11/05 02:01:13;;;;;;;6.40;2.13;;;5.90;99.90;;;;;;4980020;28;20060;-77
2022/11/05 02:03:39;;;;;;;6.85;2.20;;;5.90;99.90;;;;;;4995286;28;20038;-77
2022/11/05 02:06:08;;;;;;;6.90;2.30;;;5.90;99.90;;;;;;4995085;28;20038;-77
2022/11/05 02:09:05;;;;;;;8.73;2.13;;;5.90;99.90;;;;;;4995398;28;20514;-77
2022/11/05 02:11:31;;;;;;;6.22;2.70;;;5.90;99.90;;;;;;4995531;28;20450;-77
2022/11/05 02:13:57;;;;;;;5.88;1.95;;;5.90;99.90;;;;;;4995292;28;20526;-77
2022/11/05 02:16:49;;;;;;;5.80;2.45;;;5.90;99.90;;;;;;4995999;28;20073;-77
2022/11/05 02:19:36;;;;;;;6.93;2.25;;;5.90;99.90;;;;;;5003103;28;20038;-77
2022/11/05 02:22:20;;;;;;;8.23;2.40;;;5.80;99.90;;;;;;4995869;28;20049;-78
2022/11/05 02:25:10;;;;;;;4.90;1.85;;;5.90;99.90;;;;;;4995182;28;20410;-78
2022/11/05 02:28:02;;;;;;;7.60;2.10;;;5.90;99.90;;;;;;4981929;28;20107;-77
2022/11/05 02:30:39;;;;;;;6.35;2.05;;;5.90;99.90;;;;;;4994038;28;20042;-77
2022/11/05 02:33:33;;;;;;;4.47;2.08;;;5.90;99.90;;;;;;4993194;28;20070;-79
2022/11/05 02:36:15;;;;;;;6.70;2.20;;;5.90;99.90;;;;;;4991405;28;20038;-78
2022/11/05 02:39:24;;;;;;;10.30;2.13;;;5.90;99.90;;;;;;4985184;28;20393;-77
2022/11/05 02:42:10;;;;;;;5.53;1.88;;;5.90;99.90;;;;;;4989596;28;20045;-77
2022/11/05 02:44:48;;;;;;;6.47;2.42;;;5.90;99.90;;;;;;4991465;28;20096;-78
2022/11/05 02:47:22;;;;;;;3.95;1.95;;;5.90;99.90;;;;;;4995440;28;20112;-78
2022/11/05 02:50:02;;;;;;;;;;;5.90;99.90;;;;;;4979314;28;20069;-78
2022/11/05 02:52:37;;;;;;;7.13;2.00;;;5.90;99.90;;;;;;4995394;28;19917;-77
2022/11/05 02:55:26;;;;;;;6.60;2.25;;;5.80;99.90;;;;;;4994301;28;20116;-77
2022/11/05 02:57:51;;;;;;;5.13;2.15;;;5.80;99.90;;;;;;4991906;28;20120;-77
2022/11/05 03:00:52;;;;;;;7.32;2.47;;;5.80;99.90;;;;;;4994507;28;20455;-77
2022/11/05 03:03:33;;;;;;;3.45;1.90;;;5.80;99.90;;;;;;4995233;28;20381;-78
2022/11/05 03:06:34;;;;;;;4.90;2.00;;;5.90;99.90;;;;;;4995268;28;20507;-78
2022/11/05 03:09:24;;;;;;;7.03;2.78;;;5.80;99.90;;;;;;4992589;28;20799;-78
2022/11/05 03:12:07;;;;;;;2.53;1.80;;;5.80;99.90;;;;;;4994870;28;20824;-78
2022/11/05 03:14:33;;;;;;;3.58;2.00;;;5.80;99.90;;;;;;4993874;28;20053;-77
2022/11/05 03:17:10;;;;;;;6.13;2.05;;;5.80;99.90;;;;;;4995073;28;20104;-78
2022/11/05 03:20:04;;;;;;;7.03;2.10;;;5.80;99.90;;;;;;4991652;28;20046;-78
2022/11/05 03:22:35;;;;;;;;;;;5.80;99.90;;;;;;4988897;28;20467;-78
2022/11/05 03:25:07;;;;;;;4.47;1.90;;;5.80;99.90;;;;;;4993875;28;19917;-78
2022/11/05 03:27:36;;;;;;;5.75;2.10;;;5.80;99.90;;;;;;4993881;28;20041;-78
2022/11/05 03:30:06;;;;;;;3.42;1.98;;;5.80;99.90;;;;;;4992629;28;20073;-78
2022/11/05 03:32:36;;;;;;;4.97;1.90;;;5.80;99.90;;;;;;4991993;28;20077;-78
2022/11/05 03:35:13;;;;;;;4.63;2.10;;;5.70;99.90;;;;;;4994805;28;20041;-78
2022/11/05 03:37:41;;;;;;;7.55;2.28;;;5.70;99.90;;;;;;4989080;28;20554;-78
2022/11/05 03:40:10;;;;;;;7.28;2.40;;;5.80;99.90;;;;;;4994560;28;20506;-78
2022/11/05 03:42:39;;;;;;;5.00;2.10;;;5.70;99.90;;;;;;4994466;28;20117;-78
2022/11/05 03:45:13;;;;;;;5.40;2.15;;;5.70;99.90;;;;;;4994502;28;20113;-78
2022/11/05 03:47:41;;;;;;;7.68;2.35;;;5.70;99.90;;;;;;4993806;28;20434;-78
2022/11/05 03:50:26;;;;;;;6.13;2.08;;;5.80;99.90;;;;;;4993493;28;20034;-79
2022/11/05 03:52:55;;;;;;;5.85;2.33;;;5.80;99.90;;;;;;4994376;28;20045;-78
2022/11/05 03:55:49;;;;;;;7.10;2.33;;;5.90;99.90;;;;;;4994299;28;20038;-78
2022/11/05 03:58:15;;;;;;;6.20;2.60;;;5.90;99.90;;;;;;4993858;28;20073;-78
2022/11/05 04:00:41;;;;;;;4.60;2.50;;;6.00;99.90;;;;;;4992819;28;20470;-78
2022/11/05 04:03:06;;;;;;;6.30;2.53;;;5.90;99.90;;;;;;4993508;28;20073;-78
2022/11/05 04:05:32;;;;;;;6.22;2.80;;;6.10;99.90;;;;;;4981486;28;20161;-78
2022/11/05 04:13:31;;;;;;;7.15;2.63;;;6.10;99.90;;;;;;4966116;28;20054;-78
2022/11/05 04:18:41;;;;;;;6.53;3.03;;;6.10;99.90;;;;;;4988950;28;20045;-77
2022/11/05 04:24:07;;;;;;;9.55;3.28;;;6.10;99.90;;;;;;4992661;28;20041;-78
2022/11/05 04:26:42;;;;;;;4.97;2.70;;;6.10;99.90;;;;;;4969911;28;20042;-78
2022/11/05 04:31:53;;;;;;;5.82;3.00;;;6.10;99.90;;;;;;4988994;28;20054;-78
2022/11/05 04:34:20;;;;;;;5.53;2.72;;;6.10;99.90;;;;;;4992743;28;20404;-77
2022/11/05 04:36:49;;;;;;;6.28;3.08;;;6.10;99.90;;;;;;4991556;28;20046;-78
2022/11/05 04:39:19;;;;;;;5.93;3.08;;;6.00;99.90;;;;;;4996272;28;20506;-79
2022/11/05 04:41:48;;;;;;;6.70;3.42;;;6.00;99.90;;;;;;4987675;28;20030;-79
2022/11/05 04:44:15;;;;;;;8.07;3.72;;;6.10;99.90;;;;;;4992752;28;20041;-78
2022/11/05 04:46:41;;;;;;;6.22;3.35;;;6.00;99.90;;;;;;4993299;28;20084;-78
2022/11/05 04:49:06;;;;;;;7.47;3.58;;;6.00;99.90;;;;;;4992748;28;20124;-78
2022/11/05 04:51:32;;;;;;;11.35;3.90;;;5.90;99.90;;;;;;4993442;28;20030;-78
2022/11/05 04:53:57;;;;;;;9.93;3.78;;;5.90;99.90;;;;;;4992574;28;20575;-78
2022/11/05 04:56:24;;;;;;;5.38;4.13;;;6.00;99.90;;;;;;4992918;28;20120;-78
2022/11/05 04:58:49;;;;;;;8.20;4.22;;;5.90;99.90;;;;;;4993104;28;20033;-79
2022/11/05 05:01:18;;;;;;;11.98;4.53;;;5.90;99.90;;;;;;4992719;28;20030;-78
2022/11/05 05:03:46;;;;;;;10.07;4.85;;;5.90;99.90;;;;;;4992654;28;20026;-79
2022/11/05 05:06:11;;;;;;;9.50;4.85;;;5.90;99.90;;;;;;4993574;28;20467;-78
2022/11/05 05:08:37;;;;;;;9.57;5.15;;;5.90;99.90;;;;;;4993067;28;20080;-78
2022/11/05 05:11:05;;;;;;;9.05;4.70;;;5.90;99.90;;;;;;4992279;28;20046;-78
2022/11/05 05:13:30;;;;;;;9.25;4.38;;;5.90;99.90;;;;;;4988075;28;20081;-79
2022/11/05 05:15:56;;;;;;;8.30;4.40;;;5.80;99.90;;;;;;4992336;28;20101;-78
2022/11/05 05:18:22;;;;;;;8.23;4.80;;;5.80;99.90;;;;;;4993250;28;20107;-78
2022/11/05 05:23:32;;;;;;;11.65;4.43;;;5.80;99.90;;;;;;4993004;28;20495;-79
2022/11/05 05:25:59;;;;;;;9.45;4.45;;;5.80;99.90;;;;;;4995971;28;20030;-77
2022/11/05 05:28:26;;;;;;;6.13;4.30;;;5.80;99.90;;;;;;4996868;28;20050;-79
2022/11/05 05:30:51;;;;;;;7.75;4.55;;;5.80;99.90;;;;;;4995954;28;20041;-78
2022/11/05 05:33:17;;;;;;;9.35;4.35;;;5.70;99.90;;;;;;4996706;28;20038;-79
2022/11/05 05:35:42;;;;;;;7.30;4.20;;;5.70;99.90;;;;;;4996228;28;20710;-78
2022/11/05 05:38:08;;;;;;;7.03;4.28;;;5.60;99.90;;;;;;4996296;28;20053;-78
2022/11/05 05:40:33;;;;;;;7.63;4.43;;;5.60;99.90;;;;;;4996830;28;20037;-78
2022/11/05 05:42:59;;;;;;;5.78;4.13;;;5.60;99.90;;;;;;4995707;28;20034;-79
2022/11/05 05:45:24;;;;;;;6.05;4.43;;;5.50;99.90;;;;;;4980456;28;20049;-78
2022/11/05 05:47:50;;;;;;;9.68;5.38;;;5.50;99.90;;;;;;4995600;28;20030;-78
2022/11/05 05:50:15;;;;;;;8.05;4.80;;;5.50;99.90;;;;;;4996574;28;20033;-78
2022/11/05 05:52:41;;;;;;;11.10;5.03;;;5.40;99.90;;;;;;4995917;28;20030;-78
2022/11/05 05:55:07;;;;;;;12.13;4.68;;;5.60;99.90;;;;;;4995349;28;20040;-78
2022/11/05 05:57:33;;;;;;;8.77;4.78;;;5.40;99.90;;;;;;4996168;28;20119;-78
2022/11/05 06:00:00;;;;;;;10.18;5.05;;;5.40;99.90;;;;;;4996394;28;20046;-77
2022/11/05 06:02:26;;;;;;;6.07;4.50;;;5.40;99.90;;;;;;4994637;28;20042;-78
2022/11/05 06:04:51;;;;;;;8.05;4.63;;;5.40;99.90;;;;;;4996236;28;20064;-78
2022/11/05 06:07:17;;;;;;;10.50;4.75;;;5.40;99.90;;;;;;4996568;28;20080;-78
2022/11/05 06:09:42;;;;;;;8.35;4.60;;;5.50;99.90;;;;;;4993893;28;20054;-78
2022/11/05 06:12:08;;;;;;;8.30;5.05;;;5.50;99.90;;;;;;4995960;28;20440;-78
2022/11/05 06:14:33;;;;;;;7.63;5.13;;;5.50;99.90;;;;;;4993910;28;20080;-78
2022/11/05 06:16:59;;;;;;;9.77;4.95;;;5.50;99.90;;;;;;4979992;28;20061;-77
2022/11/05 06:19:25;;;;;;;9.35;4.80;;;5.50;99.90;;;;;;4979483;28;20049;-78
2022/11/05 06:21:50;;;;;;;13.88;5.38;;;5.50;99.90;;;;;;4995956;28;20042;-78
2022/11/05 06:24:16;;;;;;;9.57;5.10;;;5.50;99.90;;;;;;4994030;28;20065;-78
2022/11/05 06:26:42;;;;;;;8.50;5.20;;;5.40;99.90;;;;;;4995985;28;20041;-77
2022/11/05 06:29:09;;;;;;;7.75;4.50;;;5.50;99.90;;;;;;4994509;28;20073;-78
2022/11/05 06:31:35;;;;;;;9.05;5.10;;;5.50;99.90;;;;;;4995554;28;20045;-78
2022/11/05 06:34:01;;;;;;;6.88;4.88;;;5.40;99.90;;;;;;4994805;28;20396;-78
2022/11/05 06:36:27;;;;;;;10.75;5.35;;;5.40;99.90;;;;;;4993964;28;20136;-78
2022/11/05 06:38:52;;;;;;;9.45;4.78;;;5.40;99.90;;;;;;4994776;28;20121;-78
2022/11/05 06:41:18;;;;;;;10.63;5.10;;;5.40;99.90;;;;;;4995564;28;20042;-77
2022/11/05 06:43:43;;;;;;;12.27;5.53;;;5.40;99.90;;;;;;4994840;28;20045;-80
2022/11/05 06:46:10;;;;;;;8.25;4.88;;;5.40;99.90;;;;;;4978475;28;20037;-78
2022/11/05 06:48:36;;;;;;;8.10;4.95;;;5.40;99.90;;;;;;4995187;28;20124;-78
2022/11/05 06:51:02;;;;;;;9.70;5.47;;;5.40;99.90;;;;;;4995606;28;20069;-78
2022/11/05 06:53:29;;;;;;;7.63;4.95;;;5.30;99.90;;;;;;4994552;28;20458;-78
2022/11/05 06:55:54;;;;;;;7.60;5.15;;;5.40;99.90;;;;;;4995231;28;20038;-78
2022/11/05 06:58:20;;;;;;;6.65;4.93;;;5.30;99.90;;;;;;4994908;28;20575;-78
2022/11/05 07:00:45;;;;;;;8.52;5.05;;;5.40;99.90;;;;;;4994344;28;20041;-79
2022/11/05 07:03:12;;;;;;;8.18;5.30;;;5.40;99.90;;;;;;4993931;28;20041;-79
2022/11/05 07:05:41;;;;;;;8.73;5.45;;;5.40;99.90;;;;;;4994594;28;20030;-79
2022/11/05 07:08:06;;;;;;;10.32;5.88;;;5.40;99.90;;;;;;4994515;28;20052;-77
2022/11/05 07:10:32;;;;;;;8.80;5.00;;;5.40;99.90;;;;;;4993587;28;20049;-78
2022/11/05 07:12:58;;;;;;;9.90;5.47;;;5.40;99.90;;;;;;4994195;28;20034;-78
2022/11/05 07:15:23;;;;;;;12.52;5.82;;;5.30;99.90;;;;;;4994940;28;20120;-78
2022/11/05 07:17:49;;;;;;;11.38;5.57;;;5.40;99.90;;;;;;4994606;28;20095;-78
2022/11/05 07:20:14;;;;;;;8.82;5.10;;;5.40;99.90;;;;;;4994884;28;20503;-79
2022/11/05 07:22:40;;;;;;;9.20;5.00;;;5.40;99.90;;;;;;4994829;28;20042;-79
2022/11/05 07:25:06;;;;;;;10.73;5.53;;;5.40;99.90;;;;;;4994942;28;20148;-78
2022/11/05 07:27:37;;;;;;;8.32;5.10;;;5.50;99.90;;;;;;4977353;28;20464;-78
2022/11/05 07:30:06;;;;;;;10.32;6.00;;;5.50;99.90;;;;;;4994273;28;20419;-77
2022/11/05 07:32:37;;;;;;;10.38;5.28;;;5.50;99.90;;;;;;4977501;28;20041;-78
2022/11/05 07:35:02;;;;;;;7.13;5.25;;;5.60;99.90;;;;;;4994536;28;20554;-78
2022/11/05 07:37:28;;;;;;;11.05;5.97;;;5.60;99.90;;;;;;4994350;28;20037;-78
2022/11/05 07:39:53;;;;;;;11.32;6.10;;;5.70;99.90;;;;;;4993436;28;20046;-78
2022/11/05 07:42:19;;;;;;;13.07;6.97;;;5.70;99.90;;;;;;4993481;28;20088;-79
2022/11/05 07:44:44;;;;;;;11.35;6.82;;;5.80;99.90;;;;;;4994241;28;20128;-77
2022/11/05 07:47:09;;;;;;;14.90;7.05;;;5.80;99.90;;;;;;4994676;28;20033;-78
2022/11/05 07:49:35;;;;;;;11.10;6.72;;;5.90;99.90;;;;;;4976286;28;20052;-79
2022/11/05 07:52:01;;;;;;;12.00;6.18;;;5.90;99.90;;;;;;4994222;28;20042;-80
2022/11/05 07:54:26;;;;;;;12.00;6.30;;;6.00;99.90;;;;;;4978235;28;20042;-77
2022/11/05 07:56:52;;;;;;;11.07;6.47;;;6.00;99.90;;;;;;4994231;28;20046;-79
2022/11/05 07:59:17;;;;;;;12.50;6.18;;;6.10;99.90;;;;;;4992966;28;20056;-78
2022/11/05 08:01:43;;;;;;;10.10;6.60;;;6.20;99.90;;;;;;4993181;28;20116;-78
2022/11/05 08:04:08;;;;;;;10.75;6.47;;;6.20;99.90;;;;;;4991299;28;20547;-78
2022/11/05 08:06:34;;;;;;;9.57;6.10;;;6.30;99.90;;;;;;4993854;28;20038;-79
2022/11/05 08:08:59;;;;;;;10.57;6.28;;;6.40;99.90;;;;;;4991436;28;20030;-80
2022/11/05 08:11:25;;;;;;;8.52;5.82;;;6.50;99.90;;;;;;4988258;28;20046;-78
2022/11/05 08:13:51;;;;;;;9.23;5.80;;;6.50;99.90;;;;;;4992467;28;20053;-78
2022/11/05 08:16:16;;;;;;;11.35;6.28;;;6.60;99.90;;;;;;4991327;28;20038;-78
2022/11/05 08:18:43;;;;;;;10.25;5.55;;;6.60;99.90;;;;;;4989966;28;20138;-77
2022/11/05 08:21:09;;;;;;;7.85;5.82;;;6.70;99.90;;;;;;4993327;28;20045;-78
2022/11/05 08:23:35;;;;;;;8.30;5.82;;;6.80;99.90;;;;;;4990560;28;20495;-78
2022/11/05 08:26:02;;;;;;;7.90;5.32;;;6.80;99.90;;;;;;4992300;28;20060;-78
2022/11/05 08:28:28;;;;;;;10.25;5.30;;;6.80;99.90;;;;;;4992201;28;20641;-79
2022/11/05 08:30:55;;;;;;;14.18;5.65;;;6.90;99.90;;;;;;4991940;28;20045;-78
2022/11/05 08:33:22;;;;;;;6.95;5.13;;;7.00;99.90;;;;;;4992521;28;20064;-78
2022/11/05 08:35:48;;;;;;;9.38;5.22;;;7.00;99.90;;;;;;4993295;28;20049;-77
2022/11/05 08:38:17;;;;;;;8.82;5.30;;;7.10;99.90;;;;;;4975724;28;20049;-78
2022/11/05 08:40:44;;;;;;;9.30;5.10;;;7.20;99.90;;;;;;4976480;28;20030;-79
2022/11/05 08:43:12;;;;;;;7.75;5.13;;;7.30;99.90;;;;;;4990128;28;20049;-77
2022/11/05 08:45:38;;;;;;;12.80;5.03;;;7.40;99.90;;;;;;4993089;28;20042;-77
2022/11/05 08:48:06;;;;;;;7.97;4.93;;;7.50;99.90;;;;;;4992378;28;20030;-78
2022/11/05 08:50:33;;;;;;;9.60;5.53;;;7.60;99.90;;;;;;4991566;28;20092;-77
2022/11/05 08:52:58;;;;;;;7.00;4.57;;;7.70;99.90;;;;;;4992246;28;20030;-77
2022/11/05 08:55:25;;;;;;;8.15;4.78;;;7.80;99.90;;;;;;4993387;28;20650;-77
2022/11/05 08:58:02;;;;;;;8.43;5.10;;;7.90;99.90;;;;;;4992900;28;20484;-79
2022/11/05 09:00:31;;;;;;;6.90;4.25;;;8.00;99.90;;;;;;4997710;28;20041;-78
2022/11/05 09:03:01;;;;;;;11.13;4.63;;;8.10;99.90;;;;;;4997677;28;20088;-78
2022/11/05 09:05:28;;;;;;;8.75;4.38;;;8.30;99.90;;;;;;4997104;28;20206;-81
2022/11/05 09:07:54;;;;;;;8.13;4.35;;;8.40;99.90;;;;;;5006746;28;20825;-77
2022/11/05 09:10:19;;;;;;;8.32;4.40;;;8.50;99.90;;;;;;4980509;28;20161;-79
2022/11/05 09:12:45;;;;;;;8.75;4.45;;;8.70;99.90;;;;;;4997133;28;20562;-77
2022/11/05 09:15:10;;;;;;;12.52;4.30;;;8.80;99.90;;;;;;4993433;28;20168;-77
2022/11/05 09:17:36;;;;;;;6.78;4.18;;;8.90;99.90;;;;;;4993607;28;20037;-78
2022/11/05 09:20:03;;;;;;;7.78;3.97;;;9.10;99.90;;;;;;4995655;28;20385;-78
2022/11/05 09:22:29;;;;;;;7.15;4.07;;;9.30;99.90;;;;;;4995360;28;20033;-78
2022/11/05 09:24:54;;;;;;;6.47;3.65;;;9.40;99.90;;;;;;4996531;28;20026;-78
2022/11/05 09:27:20;;;;;;;6.05;4.05;;;9.60;99.90;;;;;;4995103;28;20438;-77
2022/11/05 09:29:45;;;;;;;8.20;3.70;;;9.80;99.90;;;;;;4995738;28;20114;-79
2022/11/05 09:32:11;;;;;;;5.68;3.38;;;9.90;99.90;;;;;;4995596;28;20547;-78
2022/11/05 09:34:37;;;;;;;7.93;3.65;;;9.90;99.90;;;;;;4996570;28;20172;-77
2022/11/05 09:37:02;;;;;;;8.30;4.20;;;10.00;99.90;;;;;;4995866;28;20050;-78
2022/11/05 09:39:28;;;;;;;9.05;3.47;;;10.20;99.90;;;;;;4995656;28;20049;-78
2022/11/05 09:42:00;;;;;;;6.65;3.70;;;10.30;99.90;;;;;;4996739;28;20277;-78
2022/11/05 09:44:34;;;;;;;5.20;3.58;;;10.50;99.90;;;;;;4989577;28;20040;-78
2022/11/05 09:47:01;;;;;;;;;;;10.60;99.90;;;;;;4999775;28;20071;-78
2022/11/05 09:49:50;;;;;;;7.28;3.17;;;10.70;99.90;;;;;;4996517;28;19921;-78
2022/11/05 09:52:22;;;;;;;7.03;3.42;;;10.80;99.90;;;;;;4996009;28;20060;-78
2022/11/05 09:54:49;;;;;;;4.20;3.13;;;10.80;99.90;;;;;;4996446;28;20113;-77
2022/11/05 09:57:26;;;;;;;8.48;3.60;;;10.80;99.90;;;;;;4996345;28;20056;-77
2022/11/05 09:59:55;;;;;;;6.22;2.78;;;10.80;99.90;;;;;;4994374;28;20411;-77
2022/11/05 10:02:29;;;;;;;4.32;2.90;;;10.90;99.90;;;;;;5009964;28;20049;-77
2022/11/05 10:04:56;;;;;;;;;;;10.90;99.90;;;;;;4990804;28;20499;-77
2022/11/05 10:07:24;;;;;;;6.90;3.40;;;10.90;99.90;;;;;;4994274;28;19917;-77
2022/11/05 10:09:55;;;;;;;7.25;3.25;;;11.00;99.90;;;;;;4995024;28;20042;-77
2022/11/05 10:12:42;;;;;;;6.47;2.78;;;11.00;99.90;;;;;;4996114;28;20061;-76
2022/11/05 10:15:26;;;;;;;6.72;3.00;;;11.00;99.90;;;;;;4983613;28;20050;-77
2022/11/05 10:18:02;;;;;;;8.30;2.97;;;11.00;99.90;;;;;;4979457;28;20053;-77
2022/11/05 10:20:36;;;;;;;7.95;3.10;;;11.10;99.90;;;;;;4996117;28;20113;-78
2022/11/05 10:23:18;;;;;;;7.40;2.60;;;11.10;99.90;;;;;;4994981;28;20406;-78
2022/11/05 10:25:52;;;;;;;5.55;2.40;;;11.20;99.90;;;;;;4989758;28;20033;-77
2022/11/05 10:28:20;;;;;;;5.65;2.40;;;11.30;99.90;;;;;;4994209;28;20037;-77
2022/11/05 10:30:49;;;;;;;6.80;2.60;;;11.40;99.90;;;;;;4999377;28;20628;-77
2022/11/05 10:33:30;;;;;;;8.20;2.30;;;11.50;99.90;;;;;;4977393;28;20117;-77
2022/11/05 10:36:02;;;;;;;4.82;2.35;;;11.60;99.90;;;;;;4995559;28;20504;-77
2022/11/05 10:38:28;;;;;;;5.75;2.35;;;11.60;99.90;;;;;;4994387;28;20047;-77
2022/11/05 10:41:12;;;;;;;9.25;2.85;;;11.70;99.90;;;;;;4995564;28;20081;-76
2022/11/05 10:43:49;;;;;;;5.10;2.10;;;11.70;99.90;;;;;;4982812;28;20062;-77
2022/11/05 10:46:31;;;;;;;5.57;2.20;;;11.70;99.90;;;;;;4995329;28;20045;-77
2022/11/05 10:49:03;;;;;;;5.15;2.10;;;11.60;99.90;;;;;;4995321;28;20045;-76
2022/11/05 10:51:30;;;;;;;5.57;2.30;;;11.60;99.90;;;;;;4995389;28;20148;-76
2022/11/05 10:53:59;;;;;;;6.50;2.28;;;11.60;99.90;;;;;;4994451;28;20562;-77
2022/11/05 10:56:43;;;;;;;6.72;2.35;;;11.60;99.90;;;;;;4994932;28;20069;-77
2022/11/05 10:59:24;;;;;;;6.00;2.17;;;11.70;99.90;;;;;;4994162;28;20405;-76
2022/11/05 11:01:59;;;;;;;6.47;2.22;;;11.80;99.90;;;;;;4994469;28;20499;-77
2022/11/05 11:04:27;;;;;;;5.25;2.40;;;11.80;99.90;;;;;;4995169;28;20045;-78
2022/11/05 11:06:55;;;;;;;6.20;2.20;;;11.80;99.90;;;;;;4995229;28;20133;-77
2022/11/05 11:09:34;;;;;;;10.15;2.25;;;11.90;99.90;;;;;;4979312;28;20045;-77
2022/11/05 11:12:23;;;;;;;9.85;2.35;;;12.00;99.90;;;;;;4993792;28;20057;-76
2022/11/05 11:15:03;;;;;;;8.02;2.08;;;11.90;99.90;;;;;;4987998;28;20117;-77
2022/11/05 11:17:31;;;;;;;5.22;2.35;;;12.00;99.90;;;;;;4993266;28;20573;-78
2022/11/05 11:20:20;;;;;;;4.88;2.20;;;12.00;99.90;;;;;;4994165;28;20041;-75
2022/11/05 11:23:01;;;;;;;6.43;1.80;;;12.10;99.90;;;;;;4988794;28;20033;-77
2022/11/05 11:25:32;;;;;;;4.50;1.75;;;12.20;99.90;;;;;;4994373;28;20376;-77
2022/11/05 11:28:03;;;;;;;4.07;1.48;;;12.30;99.90;;;;;;4993281;28;20038;-78
2022/11/05 11:30:28;;;;;;;6.50;1.80;;;12.30;99.90;;;;;;4991492;28;20037;-78
2022/11/05 11:33:05;;;;;;;6.03;1.95;;;12.30;99.90;;;;;;4994449;28;20044;-77
2022/11/05 11:35:31;;;;;;;5.93;1.70;;;12.40;99.90;;;;;;4995052;28;20443;-78
2022/11/05 11:37:59;;;;;;;3.75;1.50;;;12.40;99.90;;;;;;4994076;28;20041;-77
2022/11/05 11:40:31;;;;;;;4.55;1.60;;;12.50;99.90;;;;;;4994567;28;20065;-78
2022/11/05 11:43:01;;;;;;;4.28;1.95;;;12.50;99.90;;;;;;4993013;28;20033;-78
2022/11/05 11:45:32;;;;;;;5.43;1.55;;;12.60;99.90;;;;;;4994346;28;20484;-78
2022/11/05 11:48:01;;;;;;;4.82;1.67;;;12.60;99.90;;;;;;4994156;28;20039;-78
2022/11/05 11:50:31;;;;;;;3.70;1.52;;;12.50;99.90;;;;;;4992368;28;20087;-78
2022/11/05 11:53:15;;;;;;;5.55;1.70;;;12.40;99.90;;;;;;4995259;28;20030;-79
2022/11/05 11:55:54;;;;;;;3.42;1.27;;;12.20;99.90;;;;;;4993851;28;20042;-78
2022/11/05 11:58:44;;;;;;;3.17;1.35;;;12.10;99.90;;;;;;4989103;28;20125;-78
2022/11/05 12:01:16;;;;;;;6.03;1.60;;;12.10;99.90;;;;;;4993990;28;20049;-78
2022/11/05 12:03:53;;;;;;;2.90;1.38;;;12.00;99.90;;;;;;4994169;28;20411;-79
2022/11/05 12:06:43;;;;;;;6.00;1.42;;;11.90;99.90;;;;;;4994196;28;20076;-79
2022/11/05 12:09:26;;;;;;;4.50;1.42;;;11.90;99.90;;;;;;4973014;28;20064;-78
2022/11/05 12:12:15;;;;;;;5.22;1.30;;;11.80;99.90;;;;;;4993420;28;20121;-78
2022/11/05 12:14:56;;;;;;;5.43;1.30;;;11.70;99.90;;;;;;4992964;28;20769;-78
2022/11/05 12:18:00;;;;;;;5.18;1.48;;;11.60;99.90;;;;;;4998910;28;20048;-78
2022/11/05 12:20:46;;;;;;;3.67;1.50;;;11.50;99.90;;;;;;4993352;28;20065;-77
2022/11/05 12:23:44;;;;;;;5.93;1.50;;;11.40;99.90;;;;;;4986814;28;20033;-78
2022/11/05 12:26:19;;;;;;;5.88;1.77;;;11.30;99.90;;;;;;4982191;28;20046;-78
2022/11/05 12:29:00;;;;;;;3.35;1.45;;;11.20;99.90;;;;;;4993137;28;20088;-77
2022/11/05 12:31:44;;;;;;;4.80;1.33;;;11.20;99.90;;;;;;4977569;28;20077;-78
2022/11/05 12:34:41;;;;;;;3.33;1.20;;;11.20;99.90;;;;;;4993015;28;20053;-78
2022/11/05 12:37:18;;;;;;;3.00;1.17;;;11.20;99.90;;;;;;4993482;28;20104;-76
2022/11/05 12:40:06;;;;;;;5.57;1.38;;;11.20;99.90;;;;;;4992779;28;20042;-76
2022/11/05 12:42:37;;;;;;;4.28;1.42;;;11.10;99.90;;;;;;4993512;28;20499;-76
2022/11/05 12:45:17;;;;;;;3.92;1.38;;;11.10;99.90;;;;;;4993537;28;20037;-75
2022/11/05 12:47:48;;;;;;;2.53;1.30;;;11.10;99.90;;;;;;4992195;28;20050;-76
2022/11/05 12:50:32;;;;;;;4.50;1.33;;;11.10;99.90;;;;;;4990712;28;20033;-76
2022/11/05 12:53:28;;;;;;;2.45;1.40;;;11.10;99.90;;;;;;4990755;28;20087;-75
2022/11/05 12:55:58;;;;;;;4.40;1.20;;;11.00;99.90;;;;;;4987642;28;20381;-76
2022/11/05 12:58:40;;;;;;;3.83;1.50;;;11.00;99.90;;;;;;4989282;28;20048;-76
2022/11/05 13:01:12;;;;;;;2.95;1.25;;;10.90;99.90;;;;;;4992064;28;20092;-75
2022/11/05 13:03:50;;;;;;;2.78;1.52;;;10.90;99.90;;;;;;4992661;28;20095;-75
2022/11/05 13:06:21;;;;;;;4.28;1.60;;;10.90;99.90;;;;;;4993453;28;20034;-76
2022/11/05 13:08:55;;;;;;;4.13;1.70;;;10.90;99.90;;;;;;4993170;28;20125;-76
2022/11/05 13:11:45;;;;;;;5.32;1.80;;;10.80;99.90;;;;;;4991114;28;20039;-76
2022/11/05 13:14:18;;;;;;;3.90;1.42;;;10.80;99.90;;;;;;4989646;28;20037;-76
2022/11/05 13:17:06;;;;;;;3.17;1.52;;;10.90;99.90;;;;;;4987346;28;20100;-76
2022/11/05 13:19:45;;;;;;;3.25;1.50;;;10.90;99.90;;;;;;4992799;28;20058;-76
2022/11/05 13:22:36;;;;;;;3.95;1.67;;;10.90;99.90;;;;;;4993455;28;20042;-76
2022/11/05 13:25:22;;;;;;;4.05;1.63;;;11.00;99.90;;;;;;4990889;28;20391;-76
2022/11/05 13:27:50;;;;;;;4.88;1.90;;;11.10;99.90;;;;;;5005164;28;20424;-75
2022/11/05 13:30:31;;;;;;;4.65;1.63;;;11.10;99.90;;;;;;4993891;28;20073;-77
2022/11/05 13:33:09;;;;;;;4.50;1.70;;;11.20;99.90;;;;;;4993226;28;20037;-78
2022/11/05 13:35:45;;;;;;;5.43;1.98;;;11.20;99.90;;;;;;4993120;28;20038;-78
2022/11/05 13:41:09;;;;;;;3.83;1.60;;;11.20;99.90;;;;;;4991898;28;20488;-77
2022/11/05 13:43:47;;;;;;;3.78;2.10;;;11.20;99.90;;;;;;4993326;28;20126;-78
2022/11/05 13:46:36;;;;;;;5.03;2.20;;;11.20;99.90;;;;;;4994694;28;20042;-79
2022/11/05 13:49:18;;;;;;;4.93;2.03;;;11.20;99.90;;;;;;4994074;28;20073;-79
2022/11/05 13:51:58;;;;;;;6.60;2.35;;;11.30;99.90;;;;;;4995270;28;20096;-79
2022/11/05 13:54:57;;;;;;;5.78;2.22;;;11.30;99.90;;;;;;4978715;28;20057;-77
2022/11/05 13:57:56;;;;;;;3.47;1.92;;;11.30;99.90;;;;;;4995179;28;20059;-78
2022/11/05 14:00:27;;;;;;;3.92;2.10;;;11.30;99.90;;;;;;4988432;28;20508;-78
2022/11/05 14:02:58;;;;;;;8.50;2.50;;;11.20;99.90;;;;;;4975159;28;20075;-79